Bayshore, New York
Current Conditions -  °F | °C
As of 11:53 PM on Sunday 21 Dec 2014 (Local Time) from KFRG Reporting Station
Overcast Overcast  
Wind Chill: 32°   Ceiling: 900
Heat Index: 37°   Visibility: 10mi
Dew Point: 33°   Wind: 6mph
Humidity: 86%   Direction: 20°NNE
Pressure: 30.32"   Gusts: NA
Location:  40.7379°N, 73.2632°W
Report Text: KFRG 220453Z AUTO 02005KT 10SM OVC009 03/01 A3032 RMK AO2 SLP269 T00280006 400280006
Loading
Personal Weather Stations






























Interactive Weather Map New forecast layout! Learn more

10-Day Weather Forecast

Advertisements
Track Severe Weather on mobile